Time;durP1;ratioP1;P1;durP2;ratioP2;P2;SDS_P1;SDS_P2;PMS_P1;PMS_P2;Temp;Humidity;BMP_temperature;BMP_pressure;BME280_temperature;BME280_humidity;BME280_pressure;Samples;Min_cycle;Max_cycle;Signal;HPM_P1;HPM_P2
2024/01/19 00:01:19;;;;;;;0.20;0.20;;;-0.20;99.90;;;;;;5088674;28;20502;-73
2024/01/19 00:03:45;;;;;;;0.30;0.30;;;-0.30;99.90;;;;;;5077107;27;20055;-73
2024/01/19 00:06:10;;;;;;;0.10;0.10;;;-0.40;99.90;;;;;;5073930;28;20036;-73
2024/01/19 00:08:36;;;;;;;0.30;0.30;;;-0.50;99.90;;;;;;5083831;28;20059;-72
2024/01/19 00:11:01;;;;;;;0.93;0.80;;;-0.60;99.90;;;;;;5071932;28;20036;-73
2024/01/19 00:13:27;;;;;;;0.10;0.10;;;-0.70;99.90;;;;;;5066624;28;20074;-73
2024/01/19 00:15:54;;;;;;;3.03;0.30;;;-0.80;99.90;;;;;;5085834;27;20032;-73
2024/01/19 00:18:21;;;;;;;0.32;0.32;;;-1.00;99.90;;;;;;5086970;28;20040;-73
2024/01/19 00:20:47;;;;;;;0.55;0.55;;;-1.10;99.90;;;;;;5083971;28;20043;-72
2024/01/19 00:23:12;;;;;;;0.22;0.22;;;-1.20;99.90;;;;;;5084203;28;20043;-73
2024/01/19 00:25:38;;;;;;;1.08;1.08;;;-1.30;99.90;;;;;;5092286;28;20508;-72
2024/01/19 00:28:05;;;;;;;0.10;0.10;;;-1.30;99.90;;;;;;5092738;27;20043;-73
2024/01/19 00:30:30;;;;;;;0.20;0.20;;;-1.30;99.90;;;;;;5074913;28;20063;-72
2024/01/19 00:32:57;;;;;;;0.20;0.20;;;-1.30;99.90;;;;;;5078500;28;20144;-72
2024/01/19 00:35:22;;;;;;;0.22;0.22;;;-1.40;99.90;;;;;;5091176;28;20050;-72
2024/01/19 00:37:48;;;;;;;1.27;1.17;;;-1.40;99.90;;;;;;5084145;28;20114;-72
2024/01/19 00:40:13;;;;;;;0.10;0.10;;;-1.40;99.90;;;;;;5088316;28;20122;-72
2024/01/19 00:42:40;;;;;;;1.55;0.65;;;-1.50;99.90;;;;;;5082172;28;20058;-72
2024/01/19 00:45:12;;;;;;;0.20;0.20;;;-1.50;99.90;;;;;;5097805;28;20039;-72
2024/01/19 00:47:37;;;;;;;0.63;0.63;;;-1.50;99.90;;;;;;5080133;28;20070;-72
2024/01/19 00:50:05;;;;;;;0.80;0.80;;;-1.50;99.90;;;;;;5096341;28;20521;-73
2024/01/19 00:52:31;;;;;;;0.20;0.20;;;-1.50;99.90;;;;;;5094407;28;20102;-72
2024/01/19 00:54:57;;;;;;;0.20;0.20;;;-1.50;99.90;;;;;;5097041;28;20584;-72
2024/01/19 00:57:22;;;;;;;0.73;0.73;;;-1.50;99.90;;;;;;5084134;28;20429;-71
2024/01/19 00:59:48;;;;;;;0.10;0.10;;;-1.50;99.90;;;;;;5061987;28;20035;-71
2024/01/19 01:02:14;;;;;;;2.20;0.45;;;-1.50;99.90;;;;;;5091601;28;20035;-72
2024/01/19 01:04:39;;;;;;;1.55;0.70;;;-1.50;99.90;;;;;;5094018;28;20063;-72
2024/01/19 01:07:05;;;;;;;2.38;0.90;;;-1.50;99.90;;;;;;5090160;28;20046;-71
2024/01/19 01:09:30;;;;;;;0.20;0.20;;;-1.50;99.90;;;;;;5092530;28;20527;-72
2024/01/19 01:11:56;;;;;;;0.65;0.63;;;-1.50;99.90;;;;;;5094683;28;20161;-71
2024/01/19 01:14:22;;;;;;;0.20;0.20;;;-1.50;99.90;;;;;;5093750;28;20057;-72
2024/01/19 01:16:47;;;;;;;0.22;0.22;;;-1.50;99.90;;;;;;5087376;28;20039;-71
2024/01/19 01:19:13;;;;;;;0.10;0.10;;;-1.40;99.90;;;;;;5084647;28;20042;-72
2024/01/19 01:21:39;;;;;;;0.32;0.32;;;-1.50;99.90;;;;;;5096608;28;20489;-71
2024/01/19 01:24:04;;;;;;;0.65;0.55;;;-1.50;99.90;;;;;;5096973;28;20051;-71
2024/01/19 01:26:30;;;;;;;0.20;0.20;;;-1.50;99.90;;;;;;5089053;28;20039;-71
2024/01/19 01:28:56;;;;;;;0.10;0.10;;;-1.50;99.90;;;;;;5095864;28;20031;-71
2024/01/19 01:31:22;;;;;;;0.50;0.50;;;-1.50;99.90;;;;;;5094038;28;20067;-71
2024/01/19 01:33:48;;;;;;;0.30;0.30;;;-1.50;99.90;;;;;;5090738;27;20036;-72
2024/01/19 01:36:14;;;;;;;1.25;0.50;;;-1.50;99.90;;;;;;5086480;28;20476;-72
2024/01/19 01:38:39;;;;;;;0.10;0.10;;;-1.40;99.90;;;;;;5097663;27;20035;-72
2024/01/19 01:41:06;;;;;;;0.20;0.20;;;-1.40;99.90;;;;;;5111965;28;20518;-74
2024/01/19 01:43:31;;;;;;;0.22;0.22;;;-1.20;99.90;;;;;;5076893;28;20076;-76
2024/01/19 01:45:57;;;;;;;0.20;0.20;;;-1.00;99.90;;;;;;5094856;28;20035;-72
2024/01/19 01:48:24;;;;;;;0.20;0.20;;;-0.90;99.90;;;;;;5111662;27;20047;-77
2024/01/19 01:50:50;;;;;;;3.00;1.17;;;-0.70;99.90;;;;;;5100499;28;20051;-73
2024/01/19 01:53:19;;;;;;;0.40;0.40;;;-0.40;99.90;;;;;;5096709;27;20044;-71
2024/01/19 01:55:46;;;;;;;0.63;0.63;;;-0.10;99.90;;;;;;5092388;28;20039;-71
2024/01/19 01:58:13;;;;;;;0.30;0.30;;;0.10;99.90;;;;;;5083765;27;20533;-73
2024/01/19 02:00:38;;;;;;;0.20;0.20;;;0.10;99.90;;;;;;5098989;27;20115;-72
2024/01/19 02:03:05;;;;;;;0.20;0.20;;;0.20;99.90;;;;;;5084537;27;20073;-72
2024/01/19 02:05:31;;;;;;;0.40;0.40;;;0.10;99.90;;;;;;5092148;28;20055;-75
2024/01/19 02:07:57;;;;;;;0.10;0.10;;;0.00;99.90;;;;;;5084289;28;20043;-77
2024/01/19 02:10:23;;;;;;;2.90;1.85;;;-0.10;99.90;;;;;;5076989;28;20047;-72
2024/01/19 02:12:49;;;;;;;0.17;0.17;;;-0.20;99.90;;;;;;5112161;27;20023;-72
2024/01/19 02:15:21;;;;;;;0.10;0.10;;;-0.30;99.90;;;;;;5080690;27;20095;-74
2024/01/19 02:17:51;;;;;;;0.10;0.10;;;-0.30;99.90;;;;;;5094798;28;20080;-74
2024/01/19 02:20:17;;;;;;;0.20;0.20;;;-0.30;99.90;;;;;;5096718;27;20038;-74
2024/01/19 02:22:43;;;;;;;1.80;0.15;;;-0.30;99.90;;;;;;5088141;27;20417;-73
2024/01/19 02:25:09;;;;;;;0.10;0.10;;;-0.30;99.90;;;;;;5097008;27;20035;-73
2024/01/19 02:27:35;;;;;;;0.20;0.20;;;-0.30;99.90;;;;;;5091044;28;20049;-73
2024/01/19 02:30:01;;;;;;;0.10;0.10;;;-0.30;99.90;;;;;;5092019;28;20043;-73
2024/01/19 02:32:27;;;;;;;0.10;0.10;;;-0.40;99.90;;;;;;5095403;28;20042;-72
2024/01/19 02:34:53;;;;;;;0.45;0.20;;;-0.40;99.90;;;;;;5075660;28;20032;-71
2024/01/19 02:37:20;;;;;;;0.10;0.10;;;-0.30;99.90;;;;;;5078334;28;20038;-71
2024/01/19 02:39:46;;;;;;;0.40;0.40;;;-0.20;99.90;;;;;;5096463;27;20080;-72
2024/01/19 02:42:11;;;;;;;0.90;0.45;;;-0.10;99.90;;;;;;5092615;28;20044;-75
2024/01/19 02:44:37;;;;;;;0.20;0.20;;;0.00;99.90;;;;;;5094065;27;20099;-72
2024/01/19 02:47:03;;;;;;;0.10;0.10;;;0.10;99.90;;;;;;5104670;27;20067;-74
2024/01/19 02:49:29;;;;;;;0.85;0.30;;;0.20;99.90;;;;;;5077122;28;20089;-75
2024/01/19 02:51:55;;;;;;;0.20;0.20;;;0.30;99.90;;;;;;5094810;27;20426;-78
2024/01/19 02:54:20;;;;;;;0.20;0.20;;;0.40;99.90;;;;;;5091790;27;20042;-82
2024/01/19 02:56:46;;;;;;;0.10;0.10;;;0.30;99.90;;;;;;5086988;28;20471;-80
2024/01/19 02:59:11;;;;;;;0.40;0.40;;;0.40;99.90;;;;;;5076306;28;20032;-79
2024/01/19 03:01:37;;;;;;;0.10;0.10;;;0.30;99.90;;;;;;5091029;28;20043;-77
2024/01/19 03:04:03;;;;;;;0.10;0.10;;;0.40;99.90;;;;;;5093657;28;20512;-76
2024/01/19 03:06:29;;;;;;;0.10;0.10;;;0.40;99.90;;;;;;5106455;27;20043;-75
2024/01/19 03:08:54;;;;;;;0.10;0.10;;;0.30;99.90;;;;;;5099354;27;20368;-74
2024/01/19 03:11:20;;;;;;;0.10;0.10;;;0.30;99.90;;;;;;5089188;28;20040;-77
2024/01/19 03:13:46;;;;;;;0.52;0.52;;;0.20;99.90;;;;;;5089672;27;20812;-77
2024/01/19 03:16:11;;;;;;;0.10;0.10;;;0.20;99.90;;;;;;5091761;27;20158;-74
2024/01/19 03:18:37;;;;;;;0.10;0.10;;;0.20;99.90;;;;;;5081857;28;20032;-76
2024/01/19 03:21:03;;;;;;;0.10;0.10;;;0.20;99.90;;;;;;5088854;28;20849;-74
2024/01/19 03:23:28;;;;;;;0.10;0.10;;;0.20;99.90;;;;;;5073385;28;20035;-76
2024/01/19 03:25:54;;;;;;;0.10;0.10;;;0.20;99.90;;;;;;5117464;27;20103;-74
2024/01/19 03:28:19;;;;;;;0.10;0.10;;;0.20;99.90;;;;;;5070084;27;20067;-77
2024/01/19 03:30:45;;;;;;;0.20;0.20;;;0.20;99.90;;;;;;5101354;27;20443;-75
2024/01/19 03:33:10;;;;;;;0.10;0.10;;;0.20;99.90;;;;;;5106162;28;20203;-74
2024/01/19 03:35:36;;;;;;;0.10;0.10;;;0.20;99.90;;;;;;5098474;27;20495;-73
2024/01/19 03:38:02;;;;;;;0.57;0.40;;;0.10;99.90;;;;;;5102407;28;20036;-75
2024/01/19 03:40:27;;;;;;;0.13;0.13;;;0.00;99.90;;;;;;5089894;28;20470;-73
2024/01/19 03:42:53;;;;;;;0.15;0.15;;;0.00;99.90;;;;;;5092434;28;20723;-74
2024/01/19 03:45:18;;;;;;;0.10;0.10;;;-0.10;99.90;;;;;;5090276;28;20036;-74
2024/01/19 03:47:45;;;;;;;0.10;0.10;;;-0.10;99.90;;;;;;5096143;27;20043;-74
2024/01/19 03:50:10;;;;;;;0.17;0.17;;;-0.10;99.90;;;;;;5093850;28;20047;-74
2024/01/19 03:52:37;;;;;;;0.45;0.20;;;0.00;99.90;;;;;;5093448;28;20046;-74
2024/01/19 03:55:07;;;;;;;0.20;0.20;;;0.00;99.90;;;;;;5096087;28;20035;-73
2024/01/19 03:57:32;;;;;;;0.10;0.10;;;0.20;99.90;;;;;;5082836;27;20027;-74
2024/01/19 03:59:58;;;;;;;0.17;0.17;;;0.30;99.90;;;;;;5083839;27;20127;-73
2024/01/19 04:02:24;;;;;;;0.20;0.20;;;0.30;99.90;;;;;;5102723;27;20216;-75
2024/01/19 04:04:50;;;;;;;0.13;0.13;;;0.30;99.90;;;;;;5082503;27;20055;-74
2024/01/19 04:07:15;;;;;;;1.38;0.50;;;0.40;99.90;;;;;;5095419;27;20114;-78
2024/01/19 04:09:41;;;;;;;0.20;0.20;;;0.40;99.90;;;;;;5094576;27;20050;-75
2024/01/19 04:12:15;;;;;;;0.20;0.20;;;0.40;99.90;;;;;;5102798;27;20042;-79
2024/01/19 04:14:41;;;;;;;0.30;0.30;;;0.40;99.90;;;;;;5091590;28;20036;-77
2024/01/19 04:17:08;;;;;;;0.20;0.20;;;0.40;99.90;;;;;;5087521;28;20051;-76
2024/01/19 04:19:34;;;;;;;0.30;0.30;;;0.40;99.90;;;;;;5092669;28;20118;-81
2024/01/19 04:22:00;;;;;;;0.20;0.20;;;0.50;99.90;;;;;;5088051;28;20526;-75
2024/01/19 04:24:25;;;;;;;0.20;0.20;;;0.40;99.90;;;;;;5101761;28;20487;-76
2024/01/19 04:26:51;;;;;;;0.20;0.20;;;0.30;99.90;;;;;;5088199;28;20414;-77
2024/01/19 04:29:16;;;;;;;0.15;0.15;;;0.20;99.90;;;;;;5093313;28;20039;-75
2024/01/19 04:31:42;;;;;;;0.30;0.30;;;0.10;99.90;;;;;;5097216;28;20036;-78
2024/01/19 04:34:07;;;;;;;0.20;0.20;;;0.10;99.90;;;;;;5105727;27;20051;-76
2024/01/19 04:36:34;;;;;;;0.28;0.28;;;0.20;99.90;;;;;;5098128;28;20039;-75
2024/01/19 04:39:00;;;;;;;0.20;0.20;;;0.20;99.90;;;;;;5101291;28;20031;-74
2024/01/19 04:41:25;;;;;;;0.20;0.20;;;0.20;99.90;;;;;;5093349;27;20050;-78
2024/01/19 04:43:51;;;;;;;0.10;0.10;;;0.20;99.90;;;;;;5080579;28;20051;-74
2024/01/19 04:46:16;;;;;;;1.10;0.40;;;0.20;99.90;;;;;;5093178;28;20048;-73
2024/01/19 04:48:42;;;;;;;0.10;0.10;;;0.10;99.90;;;;;;5090063;28;20124;-74
2024/01/19 04:51:07;;;;;;;0.10;0.10;;;0.10;99.90;;;;;;5098799;28;20067;-72
2024/01/19 04:53:33;;;;;;;0.10;0.10;;;0.00;99.90;;;;;;5103365;28;20070;-72
2024/01/19 04:55:59;;;;;;;0.30;0.30;;;0.00;99.90;;;;;;5087967;28;20035;-70
2024/01/19 04:58:24;;;;;;;0.10;0.10;;;0.00;99.90;;;;;;5104008;28;20063;-70
2024/01/19 05:00:50;;;;;;;0.30;0.30;;;0.00;99.90;;;;;;5083545;28;20051;-71
2024/01/19 05:03:15;;;;;;;0.20;0.20;;;0.10;99.90;;;;;;5097908;28;20031;-70
2024/01/19 05:05:41;;;;;;;0.13;0.13;;;0.10;99.90;;;;;;5091204;28;20039;-72
2024/01/19 05:08:06;;;;;;;0.10;0.10;;;0.00;99.90;;;;;;5103409;28;20042;-70
2024/01/19 05:10:34;;;;;;;0.10;0.10;;;0.00;99.90;;;;;;5092324;28;20047;-71
2024/01/19 05:12:59;;;;;;;0.25;0.25;;;-0.10;99.90;;;;;;5085441;28;20032;-71
2024/01/19 05:15:25;;;;;;;0.10;0.10;;;-0.20;99.90;;;;;;5097001;28;20033;-71
2024/01/19 05:17:50;;;;;;;0.10;0.10;;;-0.30;99.90;;;;;;5093308;28;20130;-71
2024/01/19 05:20:18;;;;;;;0.10;0.10;;;-0.40;99.90;;;;;;5091709;28;20425;-72
2024/01/19 05:22:43;;;;;;;0.30;0.30;;;-0.50;99.90;;;;;;5073327;28;20043;-73
2024/01/19 05:25:09;;;;;;;0.20;0.20;;;-0.50;99.90;;;;;;5090968;28;20039;-73
2024/01/19 05:27:35;;;;;;;3.55;0.38;;;-0.70;99.90;;;;;;5090726;28;20321;-73
2024/01/19 05:30:01;;;;;;;0.45;0.45;;;-0.80;99.90;;;;;;5109566;28;20416;-72
2024/01/19 05:32:26;;;;;;;0.10;0.10;;;-1.00;99.90;;;;;;5098885;28;20031;-73
2024/01/19 05:34:52;;;;;;;0.15;0.15;;;-1.10;99.90;;;;;;5090896;28;20050;-73
2024/01/19 05:37:17;;;;;;;0.57;0.45;;;-1.30;99.90;;;;;;5071507;28;20032;-73
2024/01/19 05:39:43;;;;;;;0.20;0.20;;;-1.30;99.90;;;;;;5096064;28;20035;-74
2024/01/19 05:42:09;;;;;;;0.10;0.10;;;-1.30;99.90;;;;;;5088459;28;20500;-73
2024/01/19 05:44:34;;;;;;;0.10;0.10;;;-1.30;99.90;;;;;;5098123;28;20032;-72
2024/01/19 05:47:00;;;;;;;0.10;0.10;;;-1.30;99.90;;;;;;5082474;28;20095;-73
2024/01/19 05:49:26;;;;;;;0.10;0.10;;;-1.30;99.90;;;;;;5074184;28;20031;-73
2024/01/19 05:51:51;;;;;;;0.10;0.10;;;-1.30;99.90;;;;;;5089313;28;20069;-74
2024/01/19 05:54:18;;;;;;;0.10;0.10;;;-1.30;99.90;;;;;;5088882;28;21069;-76
2024/01/19 05:56:43;;;;;;;0.10;0.10;;;-1.30;99.90;;;;;;5107815;28;20035;-73
2024/01/19 05:59:09;;;;;;;0.10;0.10;;;-1.30;99.90;;;;;;5076823;28;20490;-74
2024/01/19 06:01:34;;;;;;;0.20;0.20;;;-1.30;99.90;;;;;;5075570;28;20058;-73
2024/01/19 06:04:00;;;;;;;0.17;0.17;;;-1.30;99.90;;;;;;5079905;28;20032;-74
2024/01/19 06:06:25;;;;;;;0.10;0.10;;;-1.30;99.90;;;;;;5071781;28;20048;-74
2024/01/19 06:08:51;;;;;;;13.15;0.90;;;-1.30;99.90;;;;;;5095572;28;20398;-74
2024/01/19 06:11:17;;;;;;;0.40;0.40;;;-1.30;99.90;;;;;;5089327;28;20048;-74
2024/01/19 06:13:44;;;;;;;0.10;0.10;;;-1.30;99.90;;;;;;5075356;28;20439;-73
2024/01/19 06:16:10;;;;;;;0.28;0.20;;;-1.40;99.90;;;;;;5088170;28;20040;-74
2024/01/19 06:18:35;;;;;;;0.10;0.10;;;-1.30;99.90;;;;;;5089291;28;20143;-74
2024/01/19 06:21:01;;;;;;;0.32;0.32;;;-1.40;99.90;;;;;;5100355;28;20044;-76
2024/01/19 06:23:26;;;;;;;0.10;0.10;;;-1.40;99.90;;;;;;5064547;28;20039;-74
2024/01/19 06:25:52;;;;;;;0.13;0.13;;;-1.40;99.90;;;;;;5077404;28;20050;-74
2024/01/19 06:28:17;;;;;;;0.17;0.17;;;-1.40;99.90;;;;;;5095937;27;20040;-75
2024/01/19 06:30:44;;;;;;;0.10;0.10;;;-1.40;99.90;;;;;;5100682;27;20051;-74
2024/01/19 06:33:10;;;;;;;0.10;0.10;;;-1.30;99.90;;;;;;5090549;27;20046;-74
2024/01/19 06:35:36;;;;;;;0.10;0.10;;;-1.20;99.90;;;;;;5095712;28;20043;-74
2024/01/19 06:38:03;;;;;;;0.10;0.10;;;-1.20;99.90;;;;;;5097082;27;20043;-75
2024/01/19 06:40:29;;;;;;;0.10;0.10;;;-1.10;99.90;;;;;;5106024;27;20035;-75
2024/01/19 06:42:55;;;;;;;0.10;0.10;;;-1.20;99.90;;;;;;5098177;27;20464;-73
2024/01/19 06:45:20;;;;;;;0.10;0.10;;;-1.10;99.90;;;;;;5095322;27;20078;-75
2024/01/19 06:47:46;;;;;;;0.10;0.10;;;-1.10;99.90;;;;;;5099214;27;20101;-75
2024/01/19 06:50:11;;;;;;;1.55;0.40;;;-1.10;99.90;;;;;;5095519;27;20043;-74
2024/01/19 06:52:37;;;;;;;0.10;0.10;;;-1.00;99.90;;;;;;5100341;27;20036;-73
2024/01/19 06:55:04;;;;;;;0.20;0.20;;;-0.90;99.90;;;;;;5108411;27;20031;-73
2024/01/19 06:57:30;;;;;;;0.10;0.10;;;-0.80;99.90;;;;;;5083361;27;20436;-73
2024/01/19 06:59:55;;;;;;;0.10;0.10;;;-0.90;99.90;;;;;;5099567;27;20031;-71
2024/01/19 07:02:21;;;;;;;0.15;0.15;;;-0.80;99.90;;;;;;5103568;28;20126;-72
2024/01/19 07:04:48;;;;;;;0.10;0.10;;;-0.80;99.90;;;;;;5103663;27;20116;-72
2024/01/19 07:07:13;;;;;;;0.10;0.10;;;-0.70;99.90;;;;;;5098985;27;20047;-72
2024/01/19 07:09:39;;;;;;;0.40;0.40;;;-0.80;99.90;;;;;;5096037;28;20051;-73
2024/01/19 07:12:05;;;;;;;0.30;0.30;;;-0.60;99.90;;;;;;5098072;27;20042;-73
2024/01/19 07:14:31;;;;;;;0.10;0.10;;;-0.60;99.90;;;;;;5098712;27;20115;-72
2024/01/19 07:16:56;;;;;;;0.15;0.15;;;-0.60;99.90;;;;;;5105842;27;20045;-73
2024/01/19 07:19:22;;;;;;;0.10;0.10;;;-0.60;99.90;;;;;;5093188;28;20039;-72
2024/01/19 07:21:48;;;;;;;0.47;0.47;;;-0.60;99.90;;;;;;5085653;28;20080;-72
2024/01/19 07:24:13;;;;;;;0.20;0.20;;;-0.50;99.90;;;;;;5090841;28;20043;-72
2024/01/19 07:26:39;;;;;;;0.10;0.10;;;-0.40;99.90;;;;;;5085472;27;20040;-72
2024/01/19 07:29:06;;;;;;;2.60;0.75;;;-0.40;99.90;;;;;;5074047;27;20469;-75
2024/01/19 07:31:38;;;;;;;0.43;0.43;;;-0.40;99.90;;;;;;5096202;27;20063;-73
2024/01/19 07:34:04;;;;;;;0.10;0.10;;;-0.30;99.90;;;;;;5089579;27;20028;-73
2024/01/19 07:36:30;;;;;;;0.10;0.10;;;-0.20;99.90;;;;;;5087678;28;20111;-72
2024/01/19 07:38:56;;;;;;;7.63;0.35;;;-0.30;99.90;;;;;;5087255;28;20490;-71
2024/01/19 07:41:22;;;;;;;0.10;0.10;;;-0.20;99.90;;;;;;5089650;27;20047;-73
2024/01/19 07:43:47;;;;;;;0.20;0.20;;;-0.20;99.90;;;;;;5090841;28;20322;-71
2024/01/19 07:46:14;;;;;;;0.10;0.10;;;-0.30;99.90;;;;;;5090862;28;20054;-71
2024/01/19 07:48:40;;;;;;;0.20;0.20;;;-0.30;99.90;;;;;;5085209;27;20603;-72
2024/01/19 07:51:06;;;;;;;0.20;0.20;;;-0.30;99.90;;;;;;5089124;28;20445;-72
2024/01/19 07:53:32;;;;;;;0.55;0.40;;;-0.40;99.90;;;;;;5082637;27;20043;-72
2024/01/19 07:55:58;;;;;;;0.10;0.10;;;-0.50;99.90;;;;;;5092522;28;20390;-72
2024/01/19 07:58:24;;;;;;;0.10;0.10;;;-0.50;99.90;;;;;;5080663;28;20036;-73
2024/01/19 08:00:51;;;;;;;0.20;0.20;;;-0.60;99.90;;;;;;5076092;28;20390;-72
2024/01/19 08:03:18;;;;;;;0.20;0.20;;;-0.70;99.90;;;;;;5081342;28;20051;-72
2024/01/19 08:05:44;;;;;;;0.13;0.13;;;-0.60;99.90;;;;;;5107390;28;20389;-72
2024/01/19 08:08:09;;;;;;;0.20;0.20;;;-0.60;99.90;;;;;;5112538;28;20032;-73
2024/01/19 08:10:36;;;;;;;0.10;0.10;;;-0.60;99.90;;;;;;5112247;28;20043;-74
2024/01/19 08:13:02;;;;;;;0.20;0.20;;;-0.60;99.90;;;;;;5095213;28;20046;-76
2024/01/19 08:15:28;;;;;;;0.20;0.20;;;-0.50;99.90;;;;;;5094435;28;20042;-74
2024/01/19 08:17:57;;;;;;;1.65;1.55;;;-0.50;99.90;;;;;;5076050;28;20484;-73
2024/01/19 08:20:24;;;;;;;0.10;0.10;;;-0.50;99.90;;;;;;5088075;28;20078;-74
2024/01/19 08:22:50;;;;;;;0.10;0.10;;;-0.50;99.90;;;;;;5080906;28;20040;-72
2024/01/19 08:25:16;;;;;;;0.10;0.10;;;-0.50;99.90;;;;;;5094372;28;20035;-74
2024/01/19 08:27:42;;;;;;;0.10;0.10;;;-0.60;99.90;;;;;;5090889;28;20039;-74
2024/01/19 08:30:08;;;;;;;0.40;0.40;;;-0.60;99.90;;;;;;5075753;28;20136;-72
2024/01/19 08:32:35;;;;;;;0.30;0.22;;;-0.60;99.90;;;;;;5091536;28;20043;-72
2024/01/19 08:35:08;;;;;;;0.20;0.20;;;-0.60;99.90;;;;;;5092687;28;20122;-72
2024/01/19 08:37:37;;;;;;;0.13;0.13;;;-0.70;99.90;;;;;;5093014;28;20114;-74
2024/01/19 08:40:08;;;;;;;0.28;0.28;;;-0.70;99.90;;;;;;5082785;28;20039;-75
2024/01/19 08:42:34;;;;;;;0.30;0.30;;;-0.70;99.90;;;;;;5088857;28;20036;-71
2024/01/19 08:44:59;;;;;;;0.10;0.10;;;-0.70;99.90;;;;;;5081771;28;20036;-73
2024/01/19 08:47:26;;;;;;;0.20;0.20;;;-0.70;99.90;;;;;;5087517;28;20062;-74
2024/01/19 08:49:51;;;;;;;0.20;0.20;;;-0.70;99.90;;;;;;5100325;28;20490;-72
2024/01/19 08:52:17;;;;;;;0.50;0.50;;;-0.70;99.90;;;;;;5086965;28;20054;-74
2024/01/19 08:54:42;;;;;;;0.10;0.10;;;-0.60;99.90;;;;;;5082555;28;20376;-76
2024/01/19 08:57:08;;;;;;;0.55;0.43;;;-0.60;99.90;;;;;;5084307;28;20100;-73
2024/01/19 08:59:34;;;;;;;0.50;0.50;;;-0.50;99.90;;;;;;5090182;28;20047;-72
2024/01/19 09:01:59;;;;;;;0.15;0.15;;;-0.50;99.90;;;;;;5084611;28;20044;-73
2024/01/19 09:04:25;;;;;;;0.40;0.40;;;-0.50;99.90;;;;;;5091908;28;20448;-72
2024/01/19 09:06:51;;;;;;;0.82;0.55;;;-0.50;99.90;;;;;;5074604;28;20131;-73
2024/01/19 09:09:17;;;;;;;0.20;0.20;;;-0.40;99.90;;;;;;5091277;28;20027;-74
2024/01/19 09:11:42;;;;;;;1.08;0.40;;;-0.40;99.90;;;;;;5080747;28;20036;-73
2024/01/19 09:14:10;;;;;;;0.40;0.40;;;-0.40;99.90;;;;;;5083374;28;20543;-73
2024/01/19 09:16:52;;;;;;;0.20;0.20;;;-0.30;99.90;;;;;;5093273;28;20067;-73
2024/01/19 09:19:17;;;;;;;0.30;0.30;;;-0.30;99.90;;;;;;5087198;28;20387;-75
2024/01/19 09:21:47;;;;;;;1.67;0.85;;;-0.30;99.90;;;;;;5086096;28;20043;-71
2024/01/19 09:24:13;;;;;;;0.35;0.25;;;-0.20;99.90;;;;;;5083263;28;20047;-71
2024/01/19 09:26:39;;;;;;;0.50;0.50;;;-0.20;99.90;;;;;;5088728;28;20049;-73
2024/01/19 09:29:05;;;;;;;0.38;0.38;;;-0.10;99.90;;;;;;5090251;28;20039;-76
2024/01/19 09:31:31;;;;;;;0.80;0.80;;;-0.10;99.90;;;;;;5091828;28;20050;-74
2024/01/19 09:33:56;;;;;;;0.22;0.22;;;0.00;99.90;;;;;;5097119;28;20093;-73
2024/01/19 09:36:22;;;;;;;0.20;0.20;;;0.00;99.90;;;;;;5095060;28;20042;-75
2024/01/19 09:38:47;;;;;;;0.30;0.30;;;0.00;99.90;;;;;;5104611;28;20501;-76
2024/01/19 09:41:38;;;;;;;0.30;0.30;;;0.00;99.90;;;;;;5099109;28;20520;-74
2024/01/19 09:44:12;;;;;;;0.60;0.60;;;0.10;99.90;;;;;;5079050;28;20119;-74
2024/01/19 09:46:52;;;;;;;0.60;0.60;;;0.10;99.90;;;;;;5093743;27;20031;-75
2024/01/19 09:49:46;;;;;;;1.15;0.73;;;0.20;99.90;;;;;;5096541;28;20078;-75
2024/01/19 09:52:52;;;;;;;0.40;0.40;;;0.30;99.90;;;;;;5096462;27;20046;-75
2024/01/19 09:55:20;;;;;;;2.00;0.60;;;0.30;99.90;;;;;;5100887;28;20114;-76
2024/01/19 09:57:47;;;;;;;1.17;0.77;;;0.40;99.90;;;;;;5099584;28;20437;-75
2024/01/19 10:00:17;;;;;;;0.65;0.63;;;0.40;99.90;;;;;;5105063;27;20534;-75
2024/01/19 10:02:48;;;;;;;0.20;0.20;;;0.50;99.90;;;;;;5101801;27;20171;-75
2024/01/19 10:05:15;;;;;;;0.20;0.20;;;0.50;99.90;;;;;;5108782;27;20122;-73
2024/01/19 10:07:42;;;;;;;0.95;0.70;;;0.60;99.90;;;;;;5096887;27;20429;-78
2024/01/19 10:10:09;;;;;;;0.20;0.20;;;0.60;99.90;;;;;;5096997;27;20036;-75
2024/01/19 10:12:36;;;;;;;2.17;0.82;;;0.60;99.90;;;;;;5087077;27;20056;-78
2024/01/19 10:15:02;;;;;;;0.20;0.20;;;0.70;99.90;;;;;;5098674;27;20043;-78
2024/01/19 10:17:28;;;;;;;0.40;0.40;;;0.80;99.90;;;;;;5104575;27;20027;-74
2024/01/19 10:19:54;;;;;;;0.28;0.28;;;0.80;99.90;;;;;;5091789;27;20031;-76
2024/01/19 10:22:30;;;;;;;0.20;0.20;;;0.90;99.90;;;;;;5093620;28;20043;-76
2024/01/19 10:24:58;;;;;;;0.20;0.20;;;1.00;99.90;;;;;;5088274;28;20041;-77
2024/01/19 10:27:44;;;;;;;1.85;0.47;;;1.00;99.90;;;;;;5093089;27;20035;-76
2024/01/19 10:30:24;;;;;;;0.20;0.20;;;1.10;99.90;;;;;;5091493;28;20040;-77
2024/01/19 10:32:51;;;;;;;0.10;0.10;;;1.10;99.90;;;;;;5075869;28;20070;-75
2024/01/19 10:35:22;;;;;;;0.20;0.20;;;1.10;99.90;;;;;;5100689;27;20074;-77
2024/01/19 10:37:49;;;;;;;0.30;0.30;;;1.10;99.90;;;;;;5097431;27;20040;-78
2024/01/19 10:40:19;;;;;;;2.78;0.45;;;1.10;99.90;;;;;;5091552;27;20031;-77
2024/01/19 10:42:45;;;;;;;0.20;0.20;;;1.00;99.90;;;;;;5097388;27;20027;-76
2024/01/19 10:45:21;;;;;;;0.65;0.65;;;1.00;99.90;;;;;;5096924;27;20041;-78
2024/01/19 10:47:49;;;;;;;0.47;0.47;;;1.10;99.90;;;;;;5093710;28;20035;-77
2024/01/19 10:50:16;;;;;;;0.40;0.40;;;1.10;99.90;;;;;;5098120;28;20523;-77
2024/01/19 10:52:44;;;;;;;0.95;0.95;;;1.30;99.90;;;;;;5093350;27;20134;-75
2024/01/19 10:55:18;;;;;;;0.38;0.38;;;1.30;99.90;;;;;;5094779;27;20028;-78
2024/01/19 10:57:43;;;;;;;1.55;0.60;;;1.40;99.90;;;;;;5102677;27;20056;-76
2024/01/19 11:00:26;;;;;;;0.25;0.25;;;1.50;99.90;;;;;;5094418;28;20106;-76
2024/01/19 11:03:00;;;;;;;0.30;0.30;;;1.50;99.90;;;;;;5092122;27;20065;-76
2024/01/19 11:05:26;;;;;;;0.65;0.65;;;1.60;99.90;;;;;;5092129;28;20089;-75
2024/01/19 11:07:54;;;;;;;2.13;0.38;;;1.60;99.90;;;;;;5092246;28;20048;-77
2024/01/19 11:10:21;;;;;;;0.22;0.22;;;1.60;99.90;;;;;;5087447;28;20398;-77
2024/01/19 11:12:55;;;;;;;1.33;1.23;;;1.70;99.90;;;;;;5093456;28;20122;-75
2024/01/19 11:15:38;;;;;;;0.20;0.20;;;1.80;99.90;;;;;;5085846;28;20061;-77
2024/01/19 11:18:05;;;;;;;6.13;1.23;;;1.80;99.90;;;;;;5099852;27;20129;-79
2024/01/19 11:20:33;;;;;;;1.10;0.60;;;1.90;99.90;;;;;;5094463;28;20065;-77
2024/01/19 11:23:00;;;;;;;0.25;0.25;;;2.00;99.90;;;;;;5095132;28;20394;-77
2024/01/19 11:25:34;;;;;;;2.72;1.02;;;2.10;99.90;;;;;;5104942;27;20040;-75
2024/01/19 11:28:20;;;;;;;0.60;0.60;;;2.10;99.90;;;;;;5099399;27;20039;-78
2024/01/19 11:31:16;;;;;;;0.80;0.25;;;2.10;99.90;;;;;;5090869;28;20051;-77
2024/01/19 11:33:42;;;;;;;0.30;0.30;;;2.20;99.90;;;;;;5085076;28;20113;-81
2024/01/19 11:36:08;;;;;;;0.75;0.60;;;2.30;99.90;;;;;;5108505;28;20035;-77
2024/01/19 11:38:41;;;;;;;1.65;1.08;;;2.40;99.90;;;;;;5089877;28;20093;-75
2024/01/19 11:41:07;;;;;;;0.57;0.50;;;2.40;99.90;;;;;;5078337;28;20485;-75
2024/01/19 11:43:43;;;;;;;0.13;0.13;;;2.50;99.90;;;;;;5090900;28;20040;-74
2024/01/19 11:46:10;;;;;;;0.25;0.25;;;2.60;99.90;;;;;;5084076;28;20119;-72
2024/01/19 11:48:43;;;;;;;0.17;0.17;;;2.60;99.90;;;;;;5093030;28;20150;-76
2024/01/19 11:51:31;;;;;;;0.57;0.40;;;2.60;99.90;;;;;;5110285;28;20154;-77
2024/01/19 11:54:01;;;;;;;0.40;0.40;;;2.70;99.90;;;;;;5095813;28;20110;-78
2024/01/19 11:56:27;;;;;;;0.55;0.50;;;2.80;99.90;;;;;;5095615;28;20081;-79
2024/01/19 11:58:53;;;;;;;0.63;0.63;;;2.80;99.90;;;;;;5100591;27;20506;-77
2024/01/19 12:01:20;;;;;;;0.98;0.52;;;2.80;99.90;;;;;;5093672;28;20050;-77
2024/01/19 12:03:52;;;;;;;0.10;0.10;;;2.80;99.90;;;;;;5091215;27;20123;-73
2024/01/19 12:06:18;;;;;;;0.10;0.10;;;2.90;99.90;;;;;;5094443;28;20486;-77
2024/01/19 12:08:43;;;;;;;0.38;0.30;;;2.90;99.90;;;;;;5091881;28;20042;-76
2024/01/19 12:11:14;;;;;;;0.15;0.15;;;2.90;99.90;;;;;;5074238;28;20043;-74
2024/01/19 12:13:41;;;;;;;1.00;0.77;;;3.00;99.90;;;;;;5074379;28;20054;-79
2024/01/19 12:16:09;;;;;;;0.10;0.10;;;3.00;99.90;;;;;;5078331;28;20441;-74
2024/01/19 12:18:36;;;;;;;0.20;0.20;;;3.10;99.90;;;;;;5084507;28;20057;-75
2024/01/19 12:21:02;;;;;;;0.28;0.17;;;3.10;99.90;;;;;;5095815;28;20040;-79
2024/01/19 12:23:35;;;;;;;0.40;0.40;;;3.20;99.90;;;;;;5076573;28;20085;-75
2024/01/19 12:26:04;;;;;;;0.90;0.40;;;3.10;99.90;;;;;;5077202;28;20039;-75
2024/01/19 12:28:31;;;;;;;0.10;0.10;;;3.20;99.90;;;;;;5092662;28;20031;-76
2024/01/19 12:30:57;;;;;;;1.00;0.43;;;3.20;99.90;;;;;;5102710;27;20043;-73
2024/01/19 12:33:29;;;;;;;0.50;0.50;;;3.30;99.90;;;;;;5097516;28;20413;-71
2024/01/19 12:36:13;;;;;;;0.35;0.35;;;3.40;99.90;;;;;;5095934;27;20131;-76
2024/01/19 12:38:40;;;;;;;0.22;0.22;;;3.40;99.90;;;;;;5091010;28;20043;-74
2024/01/19 12:41:08;;;;;;;0.10;0.10;;;3.50;99.90;;;;;;5083328;27;20038;-78
2024/01/19 12:43:34;;;;;;;0.50;0.50;;;3.50;99.90;;;;;;5093779;28;20043;-74
2024/01/19 12:46:05;;;;;;;0.20;0.20;;;3.50;99.90;;;;;;5096460;28;20596;-77
2024/01/19 12:48:32;;;;;;;4.70;0.43;;;3.60;99.90;;;;;;5088864;28;20035;-76
2024/01/19 12:50:58;;;;;;;0.20;0.20;;;3.60;99.90;;;;;;5089786;28;20047;-73